Time;durP1;ratioP1;P1;durP2;ratioP2;P2;SDS_P1;SDS_P2;PMS_P1;PMS_P2;Temp;Humidity;BMP_temperature;BMP_pressure;BME280_temperature;BME280_humidity;BME280_pressure;Samples;Min_cycle;Max_cycle;Signal;HPM_P1;HPM_P2
2023/03/04 00:02:19;;;;;;;81.18;34.70;;;-1.30;99.90;;;;;;4951731;28;20035;-80
2023/03/04 00:04:45;;;;;;;81.45;33.90;;;-1.30;99.90;;;;;;4951757;29;20027;-79
2023/03/04 00:07:15;;;;;;;81.78;34.38;;;-1.30;99.90;;;;;;4953134;28;20066;-77
2023/03/04 00:09:44;;;;;;;83.70;33.40;;;-1.20;99.90;;;;;;4952937;28;20023;-78
2023/03/04 00:12:10;;;;;;;64.80;28.05;;;-1.20;99.90;;;;;;4951999;28;20023;-79
2023/03/04 00:14:36;;;;;;;69.05;28.90;;;-1.30;99.90;;;;;;4951482;28;20030;-79
2023/03/04 00:17:03;;;;;;;73.40;31.83;;;-1.30;99.90;;;;;;4951973;28;20024;-79
2023/03/04 00:19:29;;;;;;;73.70;30.83;;;-1.20;99.90;;;;;;4952680;28;20035;-79
2023/03/04 00:21:55;;;;;;;77.45;34.25;;;-1.30;99.90;;;;;;4952513;28;20039;-80
2023/03/04 00:24:20;;;;;;;76.57;31.83;;;-1.30;99.90;;;;;;4952654;28;20027;-78
2023/03/04 00:26:46;;;;;;;69.45;30.65;;;-1.20;99.90;;;;;;4952581;28;20037;-78
2023/03/04 00:29:11;;;;;;;92.90;36.35;;;-1.20;99.90;;;;;;4952522;28;20024;-78
2023/03/04 00:31:37;;;;;;;72.18;30.48;;;-1.20;99.90;;;;;;4952658;28;20031;-78
2023/03/04 00:34:03;;;;;;;71.20;28.80;;;-1.20;99.90;;;;;;4951297;29;20042;-79
2023/03/04 00:36:28;;;;;;;77.97;32.15;;;-1.20;99.90;;;;;;4952536;28;20030;-79
2023/03/04 00:38:54;;;;;;;79.90;32.75;;;-1.20;99.90;;;;;;4951301;28;20077;-79
2023/03/04 00:41:20;;;;;;;77.78;33.60;;;-1.20;99.90;;;;;;4952447;28;20110;-79
2023/03/04 00:43:45;;;;;;;68.45;34.63;;;-1.20;99.90;;;;;;4952779;29;20372;-79
2023/03/04 00:46:11;;;;;;;71.65;31.45;;;-1.20;99.90;;;;;;4952224;28;20169;-79
2023/03/04 00:48:37;;;;;;;68.68;31.48;;;-1.20;99.90;;;;;;4952621;29;20027;-79
2023/03/04 00:51:03;;;;;;;74.95;30.77;;;-1.20;99.90;;;;;;4951252;28;20530;-79
2023/03/04 00:53:29;;;;;;;75.07;27.88;;;-1.20;99.90;;;;;;4952096;28;20473;-78
2023/03/04 00:55:55;;;;;;;77.05;30.10;;;-1.30;99.90;;;;;;4951371;28;20066;-79
2023/03/04 00:58:20;;;;;;;70.22;29.15;;;-1.20;99.90;;;;;;4951280;28;20030;-78
2023/03/04 01:00:46;;;;;;;68.38;29.25;;;-1.30;99.90;;;;;;4952156;28;20020;-79
2023/03/04 01:03:12;;;;;;;74.05;28.45;;;-1.30;99.90;;;;;;4952438;29;20027;-77
2023/03/04 01:05:37;;;;;;;78.55;31.40;;;-1.20;99.90;;;;;;4952305;28;20026;-77
2023/03/04 01:08:04;;;;;;;74.20;31.25;;;-1.20;99.90;;;;;;4952628;28;20094;-77
2023/03/04 01:10:30;;;;;;;72.13;29.15;;;-1.30;99.90;;;;;;4952221;28;20543;-78
2023/03/04 01:12:56;;;;;;;69.45;26.50;;;-1.30;99.90;;;;;;4952662;28;20046;-78
2023/03/04 01:15:22;;;;;;;67.35;28.60;;;-1.30;99.90;;;;;;4952264;28;20024;-79
2023/03/04 01:17:48;;;;;;;62.92;25.70;;;-1.30;99.90;;;;;;4952327;28;20031;-81
2023/03/04 01:20:14;;;;;;;69.95;28.42;;;-1.30;99.90;;;;;;4950781;28;20022;-79
2023/03/04 01:22:40;;;;;;;60.30;29.80;;;-1.30;99.90;;;;;;4951974;28;20118;-79
2023/03/04 01:25:06;;;;;;;59.95;25.10;;;-1.30;99.90;;;;;;4951986;29;20098;-79
2023/03/04 01:27:31;;;;;;;68.28;30.80;;;-1.30;99.90;;;;;;4952056;28;20035;-78
2023/03/04 01:29:57;;;;;;;78.18;30.63;;;-1.30;99.90;;;;;;4953746;28;20085;-79
2023/03/04 01:32:22;;;;;;;73.85;27.13;;;-1.30;99.90;;;;;;4953957;28;20024;-81
2023/03/04 01:34:48;;;;;;;66.03;28.42;;;-1.30;99.90;;;;;;4955217;28;20060;-80
2023/03/04 01:37:13;;;;;;;64.18;26.02;;;-1.30;99.90;;;;;;4954043;28;20023;-80
2023/03/04 01:39:39;;;;;;;67.45;27.15;;;-1.30;99.90;;;;;;4955171;29;20111;-80
2023/03/04 01:42:05;;;;;;;65.82;26.95;;;-1.30;99.90;;;;;;4953559;28;20493;-80
2023/03/04 01:44:31;;;;;;;65.60;26.48;;;-1.30;99.90;;;;;;4953920;28;20038;-80
2023/03/04 01:46:57;;;;;;;74.65;30.45;;;-1.30;99.90;;;;;;4953680;28;20379;-80
2023/03/04 01:49:23;;;;;;;72.97;29.55;;;-1.30;99.90;;;;;;4954154;28;20027;-81
2023/03/04 01:51:53;;;;;;;68.55;28.25;;;-1.30;99.90;;;;;;4953790;29;20492;-80
2023/03/04 01:54:19;;;;;;;77.68;32.17;;;-1.30;99.90;;;;;;4953942;28;20023;-80
2023/03/04 01:56:47;;;;;;;76.55;32.28;;;-1.30;99.90;;;;;;4953963;29;20432;-81
2023/03/04 01:59:20;;;;;;;79.78;29.10;;;-1.30;99.90;;;;;;4953703;28;20042;-81
2023/03/04 02:01:49;;;;;;;80.05;33.80;;;-1.30;99.90;;;;;;4953524;28;20034;-80
2023/03/04 02:04:17;;;;;;;77.95;30.95;;;-1.20;99.90;;;;;;4954852;28;20188;-79
2023/03/04 02:06:45;;;;;;;83.93;33.95;;;-1.20;99.90;;;;;;4954729;28;20027;-78
2023/03/04 02:09:10;;;;;;;75.03;32.58;;;-1.30;99.90;;;;;;4954789;28;20019;-78
2023/03/04 02:11:37;;;;;;;78.97;29.35;;;-1.20;99.90;;;;;;4953765;29;20117;-79
2023/03/04 02:14:03;;;;;;;84.85;30.67;;;-1.30;99.90;;;;;;4953432;28;20027;-79
2023/03/04 02:16:29;;;;;;;76.15;32.17;;;-1.30;99.90;;;;;;4953356;28;20023;-81
2023/03/04 02:18:55;;;;;;;84.80;35.75;;;-1.30;99.90;;;;;;4953692;28;20139;-81
2023/03/04 02:21:27;;;;;;;81.38;32.65;;;-1.20;99.90;;;;;;4954570;28;20110;-80
2023/03/04 02:24:14;;;;;;;85.38;36.55;;;-1.20;99.90;;;;;;4954706;29;20023;-82
2023/03/04 02:26:42;;;;;;;92.40;35.58;;;-1.20;99.90;;;;;;4953140;29;20035;-82
2023/03/04 02:29:09;;;;;;;91.88;36.78;;;-1.20;99.90;;;;;;4954408;28;20031;-81
2023/03/04 02:31:41;;;;;;;83.25;32.03;;;-1.20;99.90;;;;;;4954366;28;20475;-81
2023/03/04 02:34:18;;;;;;;75.75;27.15;;;-1.20;99.90;;;;;;4953058;28;20488;-80
2023/03/04 02:36:45;;;;;;;61.92;24.95;;;-1.30;99.90;;;;;;4954500;28;20023;-81
2023/03/04 02:39:20;;;;;;;57.80;23.90;;;-1.30;99.90;;;;;;4954108;28;20031;-80
2023/03/04 02:41:51;;;;;;;60.75;25.42;;;-1.40;99.90;;;;;;4952608;28;20089;-81
2023/03/04 02:44:29;;;;;;;50.28;21.83;;;-1.40;99.90;;;;;;4953051;28;20031;-81
2023/03/04 02:46:56;;;;;;;55.40;21.67;;;-1.40;99.90;;;;;;4954660;28;20067;-81
2023/03/04 02:49:24;;;;;;;54.45;20.63;;;-1.40;99.90;;;;;;4952891;29;20055;-81
2023/03/04 02:51:52;;;;;;;44.15;20.95;;;-1.40;99.90;;;;;;4953238;29;20031;-81
2023/03/04 02:54:22;;;;;;;50.63;21.55;;;-1.40;99.90;;;;;;4953973;28;20019;-80
2023/03/04 02:56:53;;;;;;;56.13;26.65;;;-1.40;99.90;;;;;;4954055;28;20031;-82
2023/03/04 02:59:20;;;;;;;62.88;22.55;;;-1.40;99.90;;;;;;4952847;29;20392;-81
2023/03/04 03:01:46;;;;;;;53.97;23.65;;;-1.40;99.90;;;;;;4952899;28;20397;-81
2023/03/04 03:04:12;;;;;;;65.47;25.95;;;-1.40;99.90;;;;;;4952563;28;20030;-81
2023/03/04 03:06:38;;;;;;;60.60;27.88;;;-1.40;99.90;;;;;;4952940;28;20019;-81
2023/03/04 03:09:05;;;;;;;64.65;26.10;;;-1.40;99.90;;;;;;4953796;28;20027;-82
2023/03/04 03:11:30;;;;;;;64.15;25.55;;;-1.30;99.90;;;;;;4953623;28;20019;-81
2023/03/04 03:13:56;;;;;;;63.15;24.23;;;-1.40;99.90;;;;;;4953790;28;20504;-81
2023/03/04 03:16:22;;;;;;;64.40;26.30;;;-1.40;99.90;;;;;;4952861;28;20015;-80
2023/03/04 03:18:48;;;;;;;67.10;25.67;;;-1.40;99.90;;;;;;4954258;28;20027;-81
2023/03/04 03:21:13;;;;;;;65.32;24.60;;;-1.40;99.90;;;;;;4954083;28;20106;-81
2023/03/04 03:23:39;;;;;;;58.03;24.77;;;-1.40;99.90;;;;;;4954034;28;20032;-79
2023/03/04 03:26:04;;;;;;;59.97;25.17;;;-1.40;99.90;;;;;;4952708;28;20489;-80
2023/03/04 03:28:30;;;;;;;64.53;26.38;;;-1.40;99.90;;;;;;4956232;28;20030;-80
2023/03/04 03:30:56;;;;;;;61.75;24.10;;;-1.40;99.90;;;;;;4971876;28;20023;-80
2023/03/04 03:33:21;;;;;;;68.25;27.08;;;-1.40;99.90;;;;;;4971568;28;20031;-80
2023/03/04 03:35:47;;;;;;;65.10;25.27;;;-1.50;99.90;;;;;;4971473;28;20025;-80
2023/03/04 03:38:13;;;;;;;69.53;26.20;;;-1.50;99.90;;;;;;4972667;28;20034;-80
2023/03/04 03:40:38;;;;;;;74.65;28.42;;;-1.50;99.90;;;;;;4971326;28;20465;-81
2023/03/04 03:43:04;;;;;;;73.07;27.13;;;-1.50;99.90;;;;;;4972679;28;20088;-79
2023/03/04 03:45:30;;;;;;;74.32;29.65;;;-1.50;99.90;;;;;;4971547;28;20480;-80
2023/03/04 03:47:55;;;;;;;71.35;28.25;;;-1.50;99.90;;;;;;4971167;28;20050;-80
2023/03/04 03:50:22;;;;;;;76.07;27.90;;;-1.50;99.90;;;;;;4971316;28;20046;-82
2023/03/04 03:52:47;;;;;;;70.25;28.65;;;-1.50;99.90;;;;;;4972001;28;20072;-80
2023/03/04 03:55:13;;;;;;;75.00;30.08;;;-1.50;99.90;;;;;;4972406;28;20031;-79
2023/03/04 03:57:39;;;;;;;70.85;27.67;;;-1.50;99.90;;;;;;4972518;28;20023;-79
2023/03/04 04:00:06;;;;;;;78.50;31.23;;;-1.50;99.90;;;;;;4971172;28;20451;-79
2023/03/04 04:02:32;;;;;;;92.50;33.72;;;-1.50;99.90;;;;;;4971830;28;20102;-82
2023/03/04 04:04:57;;;;;;;85.72;33.83;;;-1.50;99.90;;;;;;4972164;28;20476;-82
2023/03/04 04:07:23;;;;;;;83.35;28.75;;;-1.50;99.90;;;;;;4972311;28;20023;-80
2023/03/04 04:09:48;;;;;;;92.53;32.70;;;-1.50;99.90;;;;;;4972228;28;20034;-80
2023/03/04 04:12:15;;;;;;;84.70;31.10;;;-1.50;99.90;;;;;;4972405;28;20042;-81
2023/03/04 04:14:42;;;;;;;54.70;23.73;;;-1.50;99.90;;;;;;4971033;28;20027;-80
2023/03/04 04:17:09;;;;;;;52.50;23.00;;;-1.60;99.90;;;;;;4971080;28;20486;-80
2023/03/04 04:19:35;;;;;;;55.72;20.90;;;-1.60;99.90;;;;;;4970958;28;20164;-80
2023/03/04 04:22:01;;;;;;;43.83;18.88;;;-1.60;99.90;;;;;;4970762;28;20130;-80
2023/03/04 04:24:27;;;;;;;44.90;17.65;;;-1.70;99.90;;;;;;4970838;28;20027;-80
2023/03/04 04:26:52;;;;;;;45.22;21.00;;;-1.70;99.90;;;;;;4970827;28;20029;-80
2023/03/04 04:29:18;;;;;;;44.92;17.58;;;-1.70;99.90;;;;;;4970682;28;20476;-80
2023/03/04 04:31:44;;;;;;;49.53;20.45;;;-1.60;99.90;;;;;;4970905;28;20023;-80
2023/03/04 04:34:09;;;;;;;52.83;21.83;;;-1.70;99.90;;;;;;4970682;28;20030;-80
2023/03/04 04:36:35;;;;;;;56.88;22.20;;;-1.70;99.90;;;;;;4970619;28;20049;-80
2023/03/04 04:39:01;;;;;;;52.75;22.23;;;-1.70;99.90;;;;;;4970607;28;20477;-80
2023/03/04 04:41:34;;;;;;;53.85;20.35;;;-1.70;99.90;;;;;;4970853;28;20388;-80
2023/03/04 04:44:00;;;;;;;55.72;23.15;;;-1.80;99.90;;;;;;4971899;28;20439;-80
2023/03/04 04:46:26;;;;;;;51.13;21.42;;;-1.80;99.90;;;;;;4968833;28;20051;-79
2023/03/04 04:48:51;;;;;;;47.65;20.58;;;-1.80;99.90;;;;;;4959219;28;20459;-78
2023/03/04 04:51:17;;;;;;;54.70;22.88;;;-1.80;99.90;;;;;;4970638;28;20496;-78
2023/03/04 04:53:43;;;;;;;55.58;22.38;;;-1.80;99.90;;;;;;4959750;28;20477;-78
2023/03/04 04:56:15;;;;;;;45.58;18.40;;;-1.70;99.90;;;;;;4952088;28;20030;-79
2023/03/04 04:58:40;;;;;;;50.00;20.83;;;-1.70;99.90;;;;;;4952232;28;20482;-78
2023/03/04 05:01:06;;;;;;;52.67;21.92;;;-1.70;99.90;;;;;;4950836;29;20063;-78
2023/03/04 05:03:34;;;;;;;45.95;21.35;;;-1.80;99.90;;;;;;4953210;28;20031;-80
2023/03/04 05:06:00;;;;;;;38.92;18.83;;;-1.70;99.90;;;;;;4954151;28;20484;-83
2023/03/04 05:08:25;;;;;;;54.75;21.38;;;-1.80;99.90;;;;;;4955758;28;20062;-79
2023/03/04 05:10:51;;;;;;;39.42;18.85;;;-1.70;99.90;;;;;;4955596;28;20067;-79
2023/03/04 05:13:18;;;;;;;49.28;22.15;;;-1.80;99.90;;;;;;4955761;28;20023;-78
2023/03/04 05:15:44;;;;;;;44.92;19.80;;;-1.80;99.90;;;;;;4955622;28;20476;-78
2023/03/04 05:18:10;;;;;;;52.33;23.13;;;-1.80;99.90;;;;;;4955661;28;20019;-78
2023/03/04 05:20:35;;;;;;;50.08;21.10;;;-1.80;99.90;;;;;;4955352;29;20039;-78
2023/03/04 05:23:01;;;;;;;48.47;21.67;;;-1.80;99.90;;;;;;4954015;28;20035;-79
2023/03/04 05:25:27;;;;;;;49.75;21.58;;;-1.80;99.90;;;;;;4955205;28;20046;-80
2023/03/04 05:27:52;;;;;;;57.50;21.67;;;-1.80;99.90;;;;;;4972363;28;20105;-81
2023/03/04 05:30:18;;;;;;;46.35;22.08;;;-1.80;99.90;;;;;;4973164;28;20026;-77
2023/03/04 05:32:44;;;;;;;58.28;23.38;;;-1.80;99.90;;;;;;4974559;28;20034;-77
2023/03/04 05:35:09;;;;;;;52.40;23.15;;;-1.80;99.90;;;;;;4973170;28;20023;-78
2023/03/04 05:37:35;;;;;;;59.13;24.35;;;-1.80;99.90;;;;;;4974397;28;20027;-79
2023/03/04 05:40:00;;;;;;;51.03;22.17;;;-1.70;99.90;;;;;;4973320;28;20030;-80
2023/03/04 05:42:26;;;;;;;50.33;22.10;;;-1.80;99.90;;;;;;4974112;28;20035;-80
2023/03/04 05:44:52;;;;;;;50.25;22.35;;;-1.80;99.90;;;;;;4973248;28;20484;-80
2023/03/04 05:47:17;;;;;;;46.47;22.58;;;-1.80;99.90;;;;;;4965066;28;20051;-78
2023/03/04 05:49:43;;;;;;;49.83;21.95;;;-1.80;99.90;;;;;;4961115;28;20393;-78
2023/03/04 05:52:09;;;;;;;53.05;22.80;;;-1.70;99.90;;;;;;4955105;28;20032;-77
2023/03/04 05:54:35;;;;;;;53.28;22.27;;;-1.70;99.90;;;;;;4954844;28;20034;-80
2023/03/04 05:57:01;;;;;;;41.65;18.90;;;-1.70;99.90;;;;;;4953552;28;20019;-78
2023/03/04 05:59:27;;;;;;;47.40;22.52;;;-1.70;99.90;;;;;;4960326;28;20497;-78
2023/03/04 06:01:52;;;;;;;55.28;22.08;;;-1.60;99.90;;;;;;4963096;28;20107;-78
2023/03/04 06:04:18;;;;;;;49.55;21.10;;;-1.60;99.90;;;;;;4967859;28;20022;-77
2023/03/04 06:06:47;;;;;;;55.78;21.33;;;-1.60;99.90;;;;;;4963329;28;20027;-78
2023/03/04 06:09:14;;;;;;;45.17;20.52;;;-1.60;99.90;;;;;;4972577;28;20430;-80
2023/03/04 06:11:40;;;;;;;46.95;19.88;;;-1.60;99.90;;;;;;4970613;28;20039;-80
2023/03/04 06:14:06;;;;;;;46.83;21.52;;;-1.60;99.90;;;;;;4973803;28;20077;-79
2023/03/04 06:16:32;;;;;;;45.30;19.20;;;-1.50;99.90;;;;;;4964832;28;20566;-78
2023/03/04 06:18:57;;;;;;;43.72;20.63;;;-1.50;99.90;;;;;;4971120;28;20054;-80
2023/03/04 06:21:23;;;;;;;51.25;21.02;;;-1.60;99.90;;;;;;4963455;28;20150;-79
2023/03/04 06:23:48;;;;;;;47.08;22.23;;;-1.50;99.90;;;;;;4957239;28;20373;-77
2023/03/04 06:26:14;;;;;;;49.85;23.00;;;-1.50;99.90;;;;;;4954075;28;20019;-77
2023/03/04 06:28:43;;;;;;;40.92;20.00;;;-1.50;99.90;;;;;;4961301;28;20110;-78
2023/03/04 06:31:09;;;;;;;48.75;22.13;;;-1.50;99.90;;;;;;4963127;28;20023;-78
2023/03/04 06:33:35;;;;;;;47.88;21.98;;;-1.50;99.90;;;;;;4960704;28;20126;-78
2023/03/04 06:36:01;;;;;;;41.90;21.02;;;-1.40;99.90;;;;;;4962807;28;20484;-78
2023/03/04 06:38:26;;;;;;;43.67;19.38;;;-1.40;99.90;;;;;;4960187;28;20024;-78
2023/03/04 06:40:53;;;;;;;49.70;22.90;;;-1.40;99.90;;;;;;4961979;28;20027;-78
2023/03/04 06:43:19;;;;;;;47.03;22.42;;;-1.40;99.90;;;;;;4961103;28;20488;-79
2023/03/04 06:45:44;;;;;;;117.95;45.72;;;-1.30;99.90;;;;;;4962651;28;20019;-78
2023/03/04 06:48:10;;;;;;;43.70;22.52;;;-1.40;99.90;;;;;;4960170;28;20079;-79
2023/03/04 06:50:38;;;;;;;40.13;19.48;;;-1.30;99.90;;;;;;4961903;28;20027;-79
2023/03/04 06:53:03;;;;;;;79.00;34.63;;;-1.30;99.90;;;;;;4959157;28;20042;-79
2023/03/04 06:55:29;;;;;;;55.88;25.58;;;-1.30;99.90;;;;;;4952466;28;20028;-79
2023/03/04 06:57:54;;;;;;;98.57;40.20;;;-1.30;99.90;;;;;;4952732;28;20035;-77
2023/03/04 07:00:22;;;;;;;131.75;48.65;;;-1.30;99.90;;;;;;4952698;28;20023;-79
2023/03/04 07:02:48;;;;;;;108.93;44.95;;;-1.30;99.90;;;;;;4953927;28;20043;-78
2023/03/04 07:05:14;;;;;;;72.55;33.13;;;-1.30;99.90;;;;;;4953986;28;20039;-78
2023/03/04 07:07:40;;;;;;;59.08;26.83;;;-1.20;99.90;;;;;;4953849;28;20019;-78
2023/03/04 07:10:06;;;;;;;55.42;27.25;;;-1.20;99.90;;;;;;4952587;29;20027;-79
2023/03/04 07:12:32;;;;;;;38.10;18.92;;;-1.20;99.90;;;;;;4952554;28;20027;-79
2023/03/04 07:14:58;;;;;;;100.13;42.05;;;-1.20;99.90;;;;;;4953889;28;20024;-78
2023/03/04 07:17:23;;;;;;;43.08;20.90;;;-1.20;99.90;;;;;;4960125;28;20031;-79
2023/03/04 07:19:50;;;;;;;52.50;22.63;;;-1.10;99.90;;;;;;4961656;28;20034;-79
2023/03/04 07:22:16;;;;;;;41.30;19.20;;;-1.10;99.90;;;;;;4955747;28;20124;-79
2023/03/04 07:24:42;;;;;;;57.88;24.65;;;-1.10;99.90;;;;;;4966014;28;20637;-79
2023/03/04 07:27:07;;;;;;;50.03;21.17;;;-1.10;99.90;;;;;;4952838;28;20507;-79
2023/03/04 07:29:33;;;;;;;73.07;28.00;;;-1.10;99.90;;;;;;4954132;28;20030;-79
2023/03/04 07:32:05;;;;;;;75.53;30.40;;;-1.10;99.90;;;;;;4951860;28;20023;-79
2023/03/04 07:34:31;;;;;;;64.93;28.33;;;-1.10;99.90;;;;;;4959114;28;20035;-79
2023/03/04 07:36:56;;;;;;;89.68;35.83;;;-1.10;99.90;;;;;;4931249;29;20085;-79
2023/03/04 07:39:22;;;;;;;107.45;45.25;;;-1.00;99.90;;;;;;4931325;29;20035;-78
2023/03/04 07:41:48;;;;;;;70.13;31.08;;;-1.10;99.90;;;;;;4940767;28;20050;-78
2023/03/04 07:44:13;;;;;;;99.82;40.75;;;-1.00;99.90;;;;;;4949374;28;20162;-78
2023/03/04 07:46:39;;;;;;;93.25;37.22;;;-1.00;99.90;;;;;;4951815;28;20058;-78
2023/03/04 07:49:05;;;;;;;76.60;30.27;;;-1.00;99.90;;;;;;4953245;28;20055;-78
2023/03/04 07:51:30;;;;;;;92.88;35.28;;;-1.00;99.90;;;;;;4951465;28;20108;-78
2023/03/04 07:53:58;;;;;;;132.00;43.60;;;-1.00;99.90;;;;;;4949056;29;20023;-78
2023/03/04 07:56:30;;;;;;;139.57;48.35;;;-1.00;99.90;;;;;;4947285;29;20027;-78
2023/03/04 07:58:56;;;;;;;64.85;29.08;;;-0.90;99.90;;;;;;4946969;29;20504;-78
2023/03/04 08:01:24;;;;;;;140.85;49.85;;;-0.90;99.90;;;;;;4948477;28;20063;-78
2023/03/04 08:03:50;;;;;;;82.85;33.78;;;-0.90;99.90;;;;;;4947500;28;20587;-78
2023/03/04 08:06:18;;;;;;;151.48;54.80;;;-0.80;99.90;;;;;;4948196;28;20027;-78
2023/03/04 08:08:44;;;;;;;136.73;48.33;;;-0.80;99.90;;;;;;4950909;28;20034;-78
2023/03/04 08:11:14;;;;;;;102.63;36.60;;;-0.80;99.90;;;;;;4951828;28;20082;-78
2023/03/04 08:13:40;;;;;;;116.93;47.78;;;-0.80;99.90;;;;;;4952921;28;20028;-79
2023/03/04 08:16:07;;;;;;;122.00;46.30;;;-0.80;99.90;;;;;;4953001;29;20023;-78
2023/03/04 08:18:33;;;;;;;106.10;42.42;;;-0.70;99.90;;;;;;4951779;28;20445;-78
2023/03/04 08:20:59;;;;;;;99.78;42.60;;;-0.80;99.90;;;;;;4952684;28;20030;-79
2023/03/04 08:23:24;;;;;;;50.45;27.42;;;-0.70;99.90;;;;;;4952884;28;20418;-79
2023/03/04 08:25:50;;;;;;;53.63;24.58;;;-0.70;99.90;;;;;;4951495;28;20128;-79
2023/03/04 08:28:16;;;;;;;95.18;40.42;;;-0.70;99.90;;;;;;4952929;28;20059;-79
2023/03/04 08:30:42;;;;;;;79.68;36.45;;;-0.60;99.90;;;;;;4951573;28;20026;-79
2023/03/04 08:33:09;;;;;;;53.78;28.13;;;-0.60;99.90;;;;;;4951591;28;20081;-79
2023/03/04 08:35:39;;;;;;;71.68;33.60;;;-0.60;99.90;;;;;;4951581;29;20023;-79
2023/03/04 08:38:05;;;;;;;65.78;31.33;;;-0.60;99.90;;;;;;4950340;28;20027;-79
2023/03/04 08:40:31;;;;;;;64.93;29.70;;;-0.60;99.90;;;;;;4951322;28;20035;-79
2023/03/04 08:42:57;;;;;;;79.03;30.33;;;-0.60;99.90;;;;;;4952601;28;20043;-79
2023/03/04 08:45:22;;;;;;;104.07;41.72;;;-0.60;99.90;;;;;;4951254;28;20027;-79
2023/03/04 08:47:50;;;;;;;93.97;39.15;;;-0.50;99.90;;;;;;4951186;28;20051;-79
2023/03/04 08:50:15;;;;;;;79.47;37.08;;;-0.50;99.90;;;;;;4952671;28;20078;-79
2023/03/04 08:52:41;;;;;;;90.05;37.13;;;-0.50;99.90;;;;;;4952525;28;20027;-79
2023/03/04 08:55:07;;;;;;;105.70;42.53;;;-0.50;99.90;;;;;;4951192;28;20549;-79
2023/03/04 08:57:33;;;;;;;90.78;36.83;;;-0.50;99.90;;;;;;4951189;28;20027;-79
2023/03/04 08:59:59;;;;;;;88.70;37.03;;;-0.50;99.90;;;;;;4951254;28;20030;-79
2023/03/04 09:02:24;;;;;;;79.82;34.88;;;-0.50;99.90;;;;;;4951098;28;20046;-79
2023/03/04 09:04:50;;;;;;;68.75;31.88;;;-0.40;99.90;;;;;;4952351;28;20031;-79
2023/03/04 09:07:15;;;;;;;71.60;32.70;;;-0.50;99.90;;;;;;4952307;28;20035;-79
2023/03/04 09:09:41;;;;;;;61.05;26.65;;;-0.50;99.90;;;;;;4951268;28;20477;-79
2023/03/04 09:12:07;;;;;;;57.65;27.00;;;-0.50;99.90;;;;;;4951106;29;20377;-79
2023/03/04 09:14:34;;;;;;;74.70;34.83;;;-0.40;99.90;;;;;;4951046;28;20027;-78
2023/03/04 09:17:01;;;;;;;76.00;31.33;;;-0.40;99.90;;;;;;4952264;28;20054;-79
2023/03/04 09:19:27;;;;;;;73.40;29.00;;;-0.40;99.90;;;;;;4952323;28;20115;-79
2023/03/04 09:21:54;;;;;;;87.30;34.17;;;-0.40;99.90;;;;;;4950896;28;20117;-79
2023/03/04 09:24:20;;;;;;;68.15;29.70;;;-0.40;99.90;;;;;;4952174;28;20062;-79
2023/03/04 09:26:50;;;;;;;73.93;32.65;;;-0.30;99.90;;;;;;4950826;28;20058;-79
2023/03/04 09:29:16;;;;;;;64.85;30.52;;;-0.30;99.90;;;;;;4950777;28;20027;-79
2023/03/04 09:31:41;;;;;;;80.10;35.33;;;-0.30;99.90;;;;;;4950846;28;20089;-79
2023/03/04 09:34:07;;;;;;;61.20;27.13;;;-0.40;99.90;;;;;;4952071;28;20074;-79
2023/03/04 09:36:33;;;;;;;54.67;26.08;;;-0.40;99.90;;;;;;4950498;28;20020;-79
2023/03/04 09:39:00;;;;;;;55.60;25.00;;;-0.40;99.90;;;;;;4949151;29;20106;-79
2023/03/04 09:41:47;;;;;;;51.75;25.73;;;-0.30;99.90;;;;;;4950459;28;20046;-79
2023/03/04 09:44:21;;;;;;;53.45;23.70;;;-0.30;99.90;;;;;;4949295;29;20561;-79
2023/03/04 09:46:48;;;;;;;54.63;23.40;;;-0.30;99.90;;;;;;4951943;28;20059;-78
2023/03/04 09:49:15;;;;;;;60.10;25.27;;;-0.30;99.90;;;;;;4951174;28;20417;-79
2023/03/04 09:52:01;;;;;;;57.15;25.13;;;-0.30;99.90;;;;;;4953847;29;20526;-79
2023/03/04 09:54:48;;;;;;;43.20;21.45;;;-0.30;99.90;;;;;;4953701;29;20034;-79
2023/03/04 09:57:23;;;;;;;49.83;23.75;;;-0.30;99.90;;;;;;4954761;28;20031;-79
2023/03/04 09:59:58;;;;;;;57.05;24.80;;;-0.30;99.90;;;;;;4953458;28;20484;-78
2023/03/04 10:02:46;;;;;;;58.22;24.52;;;-0.20;99.90;;;;;;4951681;28;20621;-81
2023/03/04 10:05:20;;;;;;;54.45;24.73;;;-0.20;99.90;;;;;;4969403;28;20061;-80
2023/03/04 10:07:51;;;;;;;47.70;22.15;;;-0.20;99.90;;;;;;4960503;28;20177;-81
2023/03/04 10:10:30;;;;;;;52.53;24.02;;;-0.20;99.90;;;;;;4965542;28;20019;-79
2023/03/04 10:12:58;;;;;;;55.30;25.38;;;-0.20;99.90;;;;;;4973878;28;20038;-79
2023/03/04 10:15:45;;;;;;;48.85;22.95;;;-0.20;99.90;;;;;;4973848;28;20023;-78
2023/03/04 10:18:16;;;;;;;43.95;20.90;;;-0.20;99.90;;;;;;4973276;28;20038;-79
2023/03/04 10:20:50;;;;;;;51.35;23.58;;;-0.10;99.90;;;;;;4972626;28;20023;-80
2023/03/04 10:23:23;;;;;;;48.58;22.63;;;-0.10;99.90;;;;;;4953671;28;20051;-80
2023/03/04 10:25:53;;;;;;;46.65;24.77;;;-0.10;99.90;;;;;;4953035;29;20035;-79
2023/03/04 10:28:18;;;;;;;52.67;26.02;;;-0.10;99.90;;;;;;4952721;28;20400;-79
2023/03/04 10:31:12;;;;;;;42.83;22.38;;;0.00;99.90;;;;;;4953778;28;20122;-81
2023/03/04 10:33:39;;;;;;;52.17;26.25;;;-0.10;99.90;;;;;;4952955;28;20092;-79
2023/03/04 10:36:30;;;;;;;54.17;23.00;;;0.00;99.90;;;;;;5035631;28;20024;-81
2023/03/04 10:38:57;;;;;;;48.42;22.33;;;0.10;99.90;;;;;;4951279;28;20035;-78
2023/03/04 10:41:25;;;;;;;49.78;22.30;;;0.10;99.90;;;;;;4953331;28;20089;-81
2023/03/04 10:44:09;;;;;;;48.65;25.05;;;0.10;99.90;;;;;;4951586;28;20030;-81
2023/03/04 10:46:39;;;;;;;120.90;56.03;;;0.00;99.90;;;;;;4952291;28;20082;-78
2023/03/04 10:49:05;;;;;;;60.75;30.50;;;0.10;99.90;;;;;;4957080;28;20662;-79
2023/03/04 10:51:31;;;;;;;46.42;25.67;;;0.10;99.90;;;;;;4951277;28;20019;-77
2023/03/04 10:54:25;;;;;;;114.38;61.00;;;0.00;99.90;;;;;;4952691;28;20012;-77
2023/03/04 10:57:03;;;;;;;59.78;29.80;;;0.00;99.90;;;;;;4962280;28;20038;-78
2023/03/04 10:59:43;;;;;;;70.25;33.72;;;0.00;99.90;;;;;;4956407;28;20028;-77
2023/03/04 11:02:26;;;;;;;79.68;40.95;;;0.00;99.90;;;;;;4961841;28;20038;-77
2023/03/04 11:04:56;;;;;;;69.53;36.58;;;0.10;99.90;;;;;;4950811;29;20042;-79
2023/03/04 11:07:23;;;;;;;63.97;31.17;;;0.10;99.90;;;;;;4952239;28;20033;-77
2023/03/04 11:09:49;;;;;;;58.72;31.00;;;0.10;99.90;;;;;;4953528;28;20089;-79
2023/03/04 11:12:20;;;;;;;66.50;33.55;;;0.20;99.90;;;;;;4951265;28;20469;-80
2023/03/04 11:14:49;;;;;;;59.78;30.75;;;0.20;99.90;;;;;;4967993;28;20031;-79
2023/03/04 11:17:22;;;;;;;54.72;25.17;;;0.20;99.90;;;;;;4969329;28;20027;-79
2023/03/04 11:19:54;;;;;;;51.97;25.90;;;0.10;99.90;;;;;;4951110;28;20030;-79
2023/03/04 11:22:22;;;;;;;56.75;30.23;;;0.00;99.90;;;;;;4952336;28;20070;-79
2023/03/04 11:24:58;;;;;;;68.68;34.17;;;0.00;99.90;;;;;;4952462;28;20023;-78
2023/03/04 11:27:37;;;;;;;71.65;33.00;;;0.00;99.90;;;;;;4950746;28;20443;-80
2023/03/04 11:30:33;;;;;;;63.92;32.00;;;0.00;99.90;;;;;;4953825;28;20508;-81
2023/03/04 11:33:13;;;;;;;79.38;37.60;;;0.00;99.90;;;;;;4952791;28;20034;-80
2023/03/04 11:35:53;;;;;;;137.90;57.60;;;-0.10;99.90;;;;;;4953941;28;20568;-80
2023/03/04 11:38:35;;;;;;;97.25;41.25;;;-0.10;99.90;;;;;;4948731;28;20814;-80
2023/03/04 11:41:35;;;;;;;169.98;66.45;;;-0.10;99.90;;;;;;4952623;28;20501;-80
2023/03/04 11:44:04;;;;;;;103.10;46.38;;;-0.20;99.90;;;;;;4950609;28;20126;-78
2023/03/04 11:46:53;;;;;;;135.23;56.53;;;-0.20;99.90;;;;;;4951810;28;20131;-78
2023/03/04 11:49:49;;;;;;;110.07;47.20;;;-0.20;99.90;;;;;;4948897;28;20028;-79
2023/03/04 11:52:24;;;;;;;189.75;76.38;;;-0.20;99.90;;;;;;4952654;28;20019;-80
2023/03/04 11:54:56;;;;;;;150.55;62.00;;;-0.20;99.90;;;;;;4950204;28;20081;-80
2023/03/04 11:58:10;;;;;;;150.68;64.45;;;-0.20;99.90;;;;;;4949477;28;20028;-80
2023/03/04 12:01:02;;;;;;;127.22;54.67;;;-0.20;99.90;;;;;;4951880;28;20059;-77
2023/03/04 12:04:02;;;;;;;94.38;46.33;;;-0.20;99.90;;;;;;4964776;28;20086;-79
2023/03/04 12:06:48;;;;;;;100.32;45.40;;;-0.30;99.90;;;;;;4963547;28;20042;-80
2023/03/04 12:09:32;;;;;;;171.18;67.78;;;-0.30;99.90;;;;;;4952952;28;20062;-81
2023/03/04 12:12:22;;;;;;;170.82;68.38;;;-0.30;99.90;;;;;;4962091;28;20455;-80
2023/03/04 12:15:16;;;;;;;199.43;78.45;;;-0.20;99.90;;;;;;4963792;28;20420;-78
2023/03/04 12:18:01;;;;;;;161.05;70.75;;;-0.20;99.90;;;;;;4955621;28;20027;-79
2023/03/04 12:20:50;;;;;;;125.40;58.17;;;-0.30;99.90;;;;;;4952109;28;20019;-79
2023/03/04 12:23:43;;;;;;;112.85;48.63;;;-0.30;99.90;;;;;;4963060;28;20138;-79
2023/03/04 12:26:30;;;;;;;126.28;54.30;;;-0.20;99.90;;;;;;4949522;29;20035;-80
2023/03/04 12:29:23;;;;;;;136.77;57.22;;;-0.20;99.90;;;;;;4948759;28;20042;-80
2023/03/04 12:32:00;;;;;;;113.20;49.92;;;-0.20;99.90;;;;;;4949039;28;20396;-79
2023/03/04 12:34:45;;;;;;;107.88;47.00;;;-0.20;99.90;;;;;;4951269;28;20072;-78
2023/03/04 12:37:19;;;;;;;99.68;46.08;;;-0.20;99.90;;;;;;4952148;28;20070;-80